Old Hickory, Tennessee
Current Conditions -  °F | °C
As of 9:53 PM on Sunday 23 Nov 2014 (Local Time) from KBNA Reporting Station
Light Rain Light Rain  
Wind Chill: 61°   Ceiling: 1900
Heat Index: 61°   Visibility: 9mi
Dew Point: 58°   Wind: 14mph
Humidity: 90%   Direction: 210°SSW
Pressure: 29.5"   Gusts: 24mph
Location:  36.26°N, 86.65°W
Report Text: KBNA 240353Z 21012G21KT 9SM -RA FEW015 BKN019 OVC039 16/14 A2950 RMK AO2 RAB0255E17B50 SLP985 P0000 T01610144
Loading
Personal Weather Stations






























Interactive Weather Map New forecast layout! Learn more

10-Day Weather Forecast

Advertisements
Track Severe Weather on mobile